KHEY/HEY METAR and TAF weather

Enter ICAO airport designator
Station Type Date Time Source
KHEY METAR 2020/01/21 14:58 UTC NOAA

KHEY 211458Z AUTO 36013KT 10SM FEW026 M01/M08 A3046 RMK AO2 SLP320 T10151083 52014 FZRANO


Station Type Date Time Source
KHEY Decoded METAR 2020/01/21 14:58 UTC NOAA

Hanchey AHP / Ozark, AL, United States (KHEY) 31-21N 085-40W
Jan 21, 2020 - 09:58 AM EST / 2020.01.21 1458 UTC
Wind: from the N (360 degrees) at 15 MPH (13 KT):0
Visibility: 10 mile(s):0
Sky conditions: mostly clear
Temperature: 29.3 F (-1.5 C)
Windchill: 17 F (-8 C):1
Dew Point: 17.1 F (-8.3 C)
Relative Humidity: 59%
Pressure (altimeter): 30.46 in. Hg (1031 hPa)
Pressure tendency: 0.04 inches (1.4 hPa) higher than three hours ago
ob: KHEY 211458Z AUTO 36013KT 10SM FEW026 M01/M08 A3046 RMK AO2 SLP320 T10151083 52014 FZRANO
cycle: 15

Station Type Date Time Source
KHEY TAF UTC NOAA

Error!

Example: see airport list